sensor_id;sensor_type;location;lat;lon;timestamp;pressure;altitude;pressure_sealevel;temperature;humidity
6218;BME280;3142;48.206;11.550;2022-08-01T00:01:52;95714.91;;;24.78;48.82
6218;BME280;3142;48.206;11.550;2022-08-01T00:04:18;95714.41;;;24.76;48.57
6218;BME280;3142;48.206;11.550;2022-08-01T00:06:45;95714.13;;;24.78;48.73
6218;BME280;3142;48.206;11.550;2022-08-01T00:09:11;95713.31;;;24.77;48.87
6218;BME280;3142;48.206;11.550;2022-08-01T00:11:38;95717.66;;;24.73;48.77
6218;BME280;3142;48.206;11.550;2022-08-01T00:14:04;95714.50;;;24.71;49.17
6218;BME280;3142;48.206;11.550;2022-08-01T00:16:32;95707.84;;;24.69;49.24
6218;BME280;3142;48.206;11.550;2022-08-01T00:18:58;95712.41;;;24.68;49.15
6218;BME280;3142;48.206;11.550;2022-08-01T00:21:25;95703.56;;;24.68;49.20
6218;BME280;3142;48.206;11.550;2022-08-01T00:23:51;95712.94;;;24.65;49.37
6218;BME280;3142;48.206;11.550;2022-08-01T00:26:18;95706.28;;;24.63;49.80
6218;BME280;3142;48.206;11.550;2022-08-01T00:28:44;95715.78;;;24.55;49.49
6218;BME280;3142;48.206;11.550;2022-08-01T00:31:11;95714.44;;;24.52;49.86
6218;BME280;3142;48.206;11.550;2022-08-01T00:33:38;95715.63;;;24.46;49.85
6218;BME280;3142;48.206;11.550;2022-08-01T00:36:05;95719.16;;;24.42;50.45
6218;BME280;3142;48.206;11.550;2022-08-01T00:38:31;95713.31;;;24.40;50.17
6218;BME280;3142;48.206;11.550;2022-08-01T00:40:58;95719.22;;;24.37;50.05
6218;BME280;3142;48.206;11.550;2022-08-01T00:43:24;95719.78;;;24.34;50.16
6218;BME280;3142;48.206;11.550;2022-08-01T00:45:50;95714.72;;;24.32;49.87
6218;BME280;3142;48.206;11.550;2022-08-01T00:48:17;95716.09;;;24.30;50.26
6218;BME280;3142;48.206;11.550;2022-08-01T00:50:45;95713.44;;;24.30;49.84
6218;BME280;3142;48.206;11.550;2022-08-01T00:53:11;95718.47;;;24.31;50.19
6218;BME280;3142;48.206;11.550;2022-08-01T00:55:38;95716.59;;;24.32;50.09
6218;BME280;3142;48.206;11.550;2022-08-01T00:58:05;95720.38;;;24.31;50.11
6218;BME280;3142;48.206;11.550;2022-08-01T01:00:33;95710.75;;;24.30;50.22
6218;BME280;3142;48.206;11.550;2022-08-01T01:03:00;95708.34;;;24.28;50.06
6218;BME280;3142;48.206;11.550;2022-08-01T01:05:27;95713.72;;;24.23;50.44
6218;BME280;3142;48.206;11.550;2022-08-01T01:07:58;95714.81;;;24.22;50.23
6218;BME280;3142;48.206;11.550;2022-08-01T01:10:30;95714.00;;;24.21;50.48
6218;BME280;3142;48.206;11.550;2022-08-01T01:13:01;95714.88;;;24.17;50.32
6218;BME280;3142;48.206;11.550;2022-08-01T01:15:34;95710.09;;;24.14;50.32
6218;BME280;3142;48.206;11.550;2022-08-01T01:18:12;95712.78;;;24.14;50.37
6218;BME280;3142;48.206;11.550;2022-08-01T01:20:43;95727.22;;;24.13;50.22
6218;BME280;3142;48.206;11.550;2022-08-01T01:23:22;95717.09;;;24.10;49.94
6218;BME280;3142;48.206;11.550;2022-08-01T01:26:01;95723.81;;;24.07;50.19
6218;BME280;3142;48.206;11.550;2022-08-01T01:28:35;95726.75;;;24.06;50.18
6218;BME280;3142;48.206;11.550;2022-08-01T01:31:10;95722.00;;;24.03;50.32
6218;BME280;3142;48.206;11.550;2022-08-01T01:33:40;95725.19;;;24.05;50.41
6218;BME280;3142;48.206;11.550;2022-08-01T01:36:09;95724.97;;;24.01;50.33
6218;BME280;3142;48.206;11.550;2022-08-01T01:38:40;95727.13;;;23.99;50.48
6218;BME280;3142;48.206;11.550;2022-08-01T01:41:08;95729.53;;;23.96;50.42
6218;BME280;3142;48.206;11.550;2022-08-01T01:43:36;95733.34;;;23.89;50.53
6218;BME280;3142;48.206;11.550;2022-08-01T01:46:04;95728.59;;;23.86;50.76
6218;BME280;3142;48.206;11.550;2022-08-01T01:48:33;95729.13;;;23.83;50.44
6218;BME280;3142;48.206;11.550;2022-08-01T01:51:01;95727.59;;;23.77;50.53
6218;BME280;3142;48.206;11.550;2022-08-01T01:53:28;95734.59;;;23.73;50.60
6218;BME280;3142;48.206;11.550;2022-08-01T01:55:58;95726.91;;;23.67;50.66
6218;BME280;3142;48.206;11.550;2022-08-01T01:58:27;95734.41;;;23.64;50.63
6218;BME280;3142;48.206;11.550;2022-08-01T02:00:56;95728.25;;;23.64;50.72
6218;BME280;3142;48.206;11.550;2022-08-01T02:03:26;95727.97;;;23.66;50.60
6218;BME280;3142;48.206;11.550;2022-08-01T02:05:55;95730.06;;;23.69;50.46
6218;BME280;3142;48.206;11.550;2022-08-01T02:08:23;95738.59;;;23.71;50.44
6218;BME280;3142;48.206;11.550;2022-08-01T02:10:52;95744.78;;;23.71;50.54
6218;BME280;3142;48.206;11.550;2022-08-01T02:13:36;95744.78;;;23.71;50.34
6218;BME280;3142;48.206;11.550;2022-08-01T02:16:04;95739.69;;;23.70;50.36
6218;BME280;3142;48.206;11.550;2022-08-01T02:18:31;95741.84;;;23.68;50.29
6218;BME280;3142;48.206;11.550;2022-08-01T02:21:00;95740.25;;;23.67;50.42
6218;BME280;3142;48.206;11.550;2022-08-01T02:23:31;95739.47;;;23.66;50.45
6218;BME280;3142;48.206;11.550;2022-08-01T02:26:00;95734.41;;;23.64;50.54
6218;BME280;3142;48.206;11.550;2022-08-01T02:28:30;95738.16;;;23.63;50.53
6218;BME280;3142;48.206;11.550;2022-08-01T02:31:02;95734.47;;;23.59;50.72
6218;BME280;3142;48.206;11.550;2022-08-01T02:33:35;95736.63;;;23.57;50.51
6218;BME280;3142;48.206;11.550;2022-08-01T02:36:05;95739.00;;;23.54;50.75
6218;BME280;3142;48.206;11.550;2022-08-01T02:38:36;95742.75;;;23.53;50.67
6218;BME280;3142;48.206;11.550;2022-08-01T02:41:06;95740.41;;;23.46;50.77
6218;BME280;3142;48.206;11.550;2022-08-01T02:43:34;95740.94;;;23.43;50.83
6218;BME280;3142;48.206;11.550;2022-08-01T02:46:03;95739.38;;;23.42;50.92
6218;BME280;3142;48.206;11.550;2022-08-01T02:48:33;95742.81;;;23.43;50.67
6218;BME280;3142;48.206;11.550;2022-08-01T02:51:01;95744.69;;;23.42;50.59
6218;BME280;3142;48.206;11.550;2022-08-01T02:53:32;95743.41;;;23.40;50.58
6218;BME280;3142;48.206;11.550;2022-08-01T02:56:03;95754.59;;;23.42;50.36
6218;BME280;3142;48.206;11.550;2022-08-01T02:58:31;95752.75;;;23.37;50.65
6218;BME280;3142;48.206;11.550;2022-08-01T03:01:00;95755.44;;;23.37;50.37
6218;BME280;3142;48.206;11.550;2022-08-01T03:03:28;95748.28;;;23.32;50.48
6218;BME280;3142;48.206;11.550;2022-08-01T03:05:56;95753.91;;;23.31;50.25
6218;BME280;3142;48.206;11.550;2022-08-01T03:08:25;95754.16;;;23.29;50.17
6218;BME280;3142;48.206;11.550;2022-08-01T03:10:53;95756.28;;;23.32;49.86
6218;BME280;3142;48.206;11.550;2022-08-01T03:13:21;95753.91;;;23.31;50.01
6218;BME280;3142;48.206;11.550;2022-08-01T03:15:49;95754.94;;;23.30;50.05
6218;BME280;3142;48.206;11.550;2022-08-01T03:18:16;95754.44;;;23.28;49.98
6218;BME280;3142;48.206;11.550;2022-08-01T03:20:45;95758.22;;;23.22;49.98
6218;BME280;3142;48.206;11.550;2022-08-01T03:23:13;95756.13;;;23.19;50.12
6218;BME280;3142;48.206;11.550;2022-08-01T03:25:43;95761.75;;;23.17;50.20
6218;BME280;3142;48.206;11.550;2022-08-01T03:28:13;95764.66;;;23.16;49.94
6218;BME280;3142;48.206;11.550;2022-08-01T03:30:41;95757.78;;;23.10;50.29
6218;BME280;3142;48.206;11.550;2022-08-01T03:33:09;95760.22;;;23.06;50.40
6218;BME280;3142;48.206;11.550;2022-08-01T03:35:37;95763.66;;;23.07;50.35
6218;BME280;3142;48.206;11.550;2022-08-01T03:38:06;95769.00;;;23.07;50.30
6218;BME280;3142;48.206;11.550;2022-08-01T03:40:37;95769.28;;;23.05;50.40
6218;BME280;3142;48.206;11.550;2022-08-01T03:43:07;95770.38;;;23.04;50.43
6218;BME280;3142;48.206;11.550;2022-08-01T03:45:40;95778.09;;;23.00;50.46
6218;BME280;3142;48.206;11.550;2022-08-01T03:48:10;95778.16;;;22.95;50.71
6218;BME280;3142;48.206;11.550;2022-08-01T03:50:41;95784.28;;;22.96;50.79
6218;BME280;3142;48.206;11.550;2022-08-01T03:53:10;95779.19;;;22.99;50.55
6218;BME280;3142;48.206;11.550;2022-08-01T03:55:38;95779.75;;;22.96;50.84
6218;BME280;3142;48.206;11.550;2022-08-01T03:58:06;95782.16;;;22.93;50.52
6218;BME280;3142;48.206;11.550;2022-08-01T04:00:35;95784.31;;;22.91;50.92
6218;BME280;3142;48.206;11.550;2022-08-01T04:03:06;95785.41;;;22.90;50.81
6218;BME280;3142;48.206;11.550;2022-08-01T04:05:33;95786.19;;;22.90;50.93
6218;BME280;3142;48.206;11.550;2022-08-01T04:08:00;95792.59;;;22.89;50.93
6218;BME280;3142;48.206;11.550;2022-08-01T04:10:28;95794.22;;;22.85;51.12
6218;BME280;3142;48.206;11.550;2022-08-01T04:12:55;95791.53;;;22.80;51.23
6218;BME280;3142;48.206;11.550;2022-08-01T04:15:21;95794.78;;;22.77;51.24
6218;BME280;3142;48.206;11.550;2022-08-01T04:17:48;95795.56;;;22.72;51.48
6218;BME280;3142;48.206;11.550;2022-08-01T04:20:16;95799.31;;;22.71;51.41
6218;BME280;3142;48.206;11.550;2022-08-01T04:22:43;95803.84;;;22.76;51.43
6218;BME280;3142;48.206;11.550;2022-08-01T04:25:12;95801.69;;;22.73;51.46
6218;BME280;3142;48.206;11.550;2022-08-01T04:27:42;95802.78;;;22.72;51.32
6218;BME280;3142;48.206;11.550;2022-08-01T04:30:11;95808.66;;;22.69;51.66
6218;BME280;3142;48.206;11.550;2022-08-01T04:32:41;95811.09;;;22.65;51.81
6218;BME280;3142;48.206;11.550;2022-08-01T04:35:12;95811.66;;;22.62;51.80
6218;BME280;3142;48.206;11.550;2022-08-01T04:37:43;95809.22;;;22.61;51.69
6218;BME280;3142;48.206;11.550;2022-08-01T04:40:11;95814.84;;;22.59;51.93
6218;BME280;3142;48.206;11.550;2022-08-01T04:42:38;95814.31;;;22.62;51.96
6218;BME280;3142;48.206;11.550;2022-08-01T04:45:06;95822.00;;;22.69;51.85
6218;BME280;3142;48.206;11.550;2022-08-01T04:47:34;95821.22;;;22.68;51.87
6218;BME280;3142;48.206;11.550;2022-08-01T04:50:04;95822.00;;;22.69;51.76
6218;BME280;3142;48.206;11.550;2022-08-01T04:52:33;95823.59;;;22.70;51.97
6218;BME280;3142;48.206;11.550;2022-08-01T04:55:02;95823.31;;;22.71;51.81
6218;BME280;3142;48.206;11.550;2022-08-01T04:57:28;95826.53;;;22.68;52.10
6218;BME280;3142;48.206;11.550;2022-08-01T04:59:55;95821.47;;;22.72;51.83
6218;BME280;3142;48.206;11.550;2022-08-01T05:02:22;95821.19;;;22.73;51.88
6218;BME280;3142;48.206;11.550;2022-08-01T05:04:49;95823.28;;;22.82;51.88
6218;BME280;3142;48.206;11.550;2022-08-01T05:07:15;95829.13;;;22.89;51.67
6218;BME280;3142;48.206;11.550;2022-08-01T05:09:42;95827.00;;;22.96;51.51
6218;BME280;3142;48.206;11.550;2022-08-01T05:12:12;95831.53;;;22.95;51.46
6218;BME280;3142;48.206;11.550;2022-08-01T05:14:39;95827.00;;;22.96;51.66
6218;BME280;3142;48.206;11.550;2022-08-01T05:17:07;95827.50;;;22.98;51.46
6218;BME280;3142;48.206;11.550;2022-08-01T05:19:34;95832.84;;;22.98;51.31
6218;BME280;3142;48.206;11.550;2022-08-01T05:22:03;95834.97;;;23.01;51.48
6218;BME280;3142;48.206;11.550;2022-08-01T05:24:30;95837.66;;;22.96;51.41
6218;BME280;3142;48.206;11.550;2022-08-01T05:26:57;95837.63;;;23.06;51.21
6218;BME280;3142;48.206;11.550;2022-08-01T05:29:25;95843.94;;;23.20;51.07
6218;BME280;3142;48.206;11.550;2022-08-01T05:31:52;95840.69;;;23.28;51.17
6218;BME280;3142;48.206;11.550;2022-08-01T05:34:19;95846.00;;;23.28;50.76
6218;BME280;3142;48.206;11.550;2022-08-01T05:36:45;95862.03;;;23.33;50.76
6218;BME280;3142;48.206;11.550;2022-08-01T05:39:12;95856.69;;;23.33;50.78
6218;BME280;3142;48.206;11.550;2022-08-01T05:41:39;95855.34;;;23.36;50.82
6218;BME280;3142;48.206;11.550;2022-08-01T05:44:06;95857.16;;;23.41;50.80
6218;BME280;3142;48.206;11.550;2022-08-01T05:46:34;95857.16;;;23.41;50.55
6218;BME280;3142;48.206;11.550;2022-08-01T05:49:03;95855.84;;;23.38;50.68
6218;BME280;3142;48.206;11.550;2022-08-01T05:51:30;95860.91;;;23.40;50.90
6218;BME280;3142;48.206;11.550;2022-08-01T05:53:58;95862.78;;;23.39;51.08
6218;BME280;3142;48.206;11.550;2022-08-01T05:56:24;95858.53;;;23.38;51.38
6218;BME280;3142;48.206;11.550;2022-08-01T05:58:51;95853.69;;;23.40;50.93
6218;BME280;3142;48.206;11.550;2022-08-01T06:01:18;95857.72;;;23.38;50.65
6218;BME280;3142;48.206;11.550;2022-08-01T06:03:46;95867.09;;;23.35;50.87
6218;BME280;3142;48.206;11.550;2022-08-01T06:06:12;95863.63;;;23.34;50.85
6218;BME280;3142;48.206;11.550;2022-08-01T06:08:40;95856.13;;;23.37;51.05
6218;BME280;3142;48.206;11.550;2022-08-01T06:11:06;95862.22;;;23.42;50.82
6218;BME280;3142;48.206;11.550;2022-08-01T06:13:33;95866.25;;;23.40;50.96
6218;BME280;3142;48.206;11.550;2022-08-01T06:15:59;95864.38;;;23.40;50.77
6218;BME280;3142;48.206;11.550;2022-08-01T06:18:26;95863.63;;;23.34;51.03
6218;BME280;3142;48.206;11.550;2022-08-01T06:20:53;95867.66;;;23.32;51.09
6218;BME280;3142;48.206;11.550;2022-08-01T06:23:20;95873.00;;;23.32;51.19
6218;BME280;3142;48.206;11.550;2022-08-01T06:25:47;95867.38;;;23.33;51.12
6218;BME280;3142;48.206;11.550;2022-08-01T06:28:13;95885.78;;;23.30;50.90
6218;BME280;3142;48.206;11.550;2022-08-01T06:30:40;95877.00;;;23.29;50.93
6218;BME280;3142;48.206;11.550;2022-08-01T06:33:06;95875.13;;;23.30;50.97
6218;BME280;3142;48.206;11.550;2022-08-01T06:35:33;95883.41;;;23.28;51.11
6218;BME280;3142;48.206;11.550;2022-08-01T06:38:01;95876.47;;;23.27;51.08
6218;BME280;3142;48.206;11.550;2022-08-01T06:40:28;95879.41;;;23.31;51.04
6218;BME280;3142;48.206;11.550;2022-08-01T06:42:55;95881.75;;;23.38;50.91
6218;BME280;3142;48.206;11.550;2022-08-01T06:45:21;95881.47;;;23.39;50.99
6218;BME280;3142;48.206;11.550;2022-08-01T06:47:49;95876.09;;;23.49;51.04
6218;BME280;3142;48.206;11.550;2022-08-01T06:50:16;95876.38;;;23.48;51.26
6218;BME280;3142;48.206;11.550;2022-08-01T06:52:42;95879.59;;;23.45;50.82
6218;BME280;3142;48.206;11.550;2022-08-01T06:55:10;95880.88;;;23.52;51.03
6218;BME280;3142;48.206;11.550;2022-08-01T06:57:45;95884.09;;;23.49;51.08
6218;BME280;3142;48.206;11.550;2022-08-01T07:00:12;95876.03;;;23.54;51.05
6218;BME280;3142;48.206;11.550;2022-08-01T07:02:39;95870.94;;;23.63;50.93
6218;BME280;3142;48.206;11.550;2022-08-01T07:05:06;95874.63;;;23.72;51.13
6218;BME280;3142;48.206;11.550;2022-08-01T07:07:33;95876.47;;;23.77;50.66
6218;BME280;3142;48.206;11.550;2022-08-01T07:09:59;95872.16;;;23.81;50.77
6218;BME280;3142;48.206;11.550;2022-08-01T07:12:27;95878.53;;;23.85;50.80
6218;BME280;3142;48.206;11.550;2022-08-01T07:14:53;95879.34;;;23.85;50.79
6218;BME280;3142;48.206;11.550;2022-08-01T07:17:20;95887.09;;;23.87;50.48
6218;BME280;3142;48.206;11.550;2022-08-01T07:19:46;95879.56;;;23.89;50.26
6218;BME280;3142;48.206;11.550;2022-08-01T07:22:13;95873.34;;;23.99;50.26
6218;BME280;3142;48.206;11.550;2022-08-01T07:24:41;95875.34;;;24.17;49.87
6218;BME280;3142;48.206;11.550;2022-08-01T07:27:07;95869.50;;;24.39;49.48
6218;BME280;3142;48.206;11.550;2022-08-01T07:29:35;95874.59;;;24.64;49.15
6218;BME280;3142;48.206;11.550;2022-08-01T07:32:02;95879.56;;;24.76;48.58
6218;BME280;3142;48.206;11.550;2022-08-01T07:34:28;95877.34;;;24.83;48.25
6218;BME280;3142;48.206;11.550;2022-08-01T07:36:55;95879.34;;;24.96;47.90
6218;BME280;3142;48.206;11.550;2022-08-01T07:39:22;95876.53;;;25.06;47.98
6218;BME280;3142;48.206;11.550;2022-08-01T07:41:48;95870.50;;;25.20;47.70
6218;BME280;3142;48.206;11.550;2022-08-01T07:44:15;95876.00;;;25.28;47.27
6218;BME280;3142;48.206;11.550;2022-08-01T07:46:42;95869.44;;;25.39;47.37
6218;BME280;3142;48.206;11.550;2022-08-01T07:49:09;95861.09;;;25.60;47.06
6218;BME280;3142;48.206;11.550;2022-08-01T07:51:35;95867.25;;;25.79;46.90
6218;BME280;3142;48.206;11.550;2022-08-01T07:54:03;95863.75;;;25.97;46.25
6218;BME280;3142;48.206;11.550;2022-08-01T07:56:29;95877.19;;;26.11;45.81
6218;BME280;3142;48.206;11.550;2022-08-01T07:58:56;95873.16;;;26.27;45.41
6218;BME280;3142;48.206;11.550;2022-08-01T08:01:22;95872.34;;;26.46;45.07
6218;BME280;3142;48.206;11.550;2022-08-01T08:03:50;95867.00;;;26.60;44.79
6218;BME280;3142;48.206;11.550;2022-08-01T08:06:16;95873.72;;;26.71;44.41
6218;BME280;3142;48.206;11.550;2022-08-01T08:08:43;95867.38;;;26.80;44.33
6218;BME280;3142;48.206;11.550;2022-08-01T08:11:09;95869.94;;;26.99;44.18
6218;BME280;3142;48.206;11.550;2022-08-01T08:13:36;95876.03;;;27.19;43.71
6218;BME280;3142;48.206;11.550;2022-08-01T08:16:02;95873.16;;;27.29;43.68
6218;BME280;3142;48.206;11.550;2022-08-01T08:18:29;95867.34;;;27.35;43.24
6218;BME280;3142;48.206;11.550;2022-08-01T08:20:57;95874.88;;;27.47;43.34
6218;BME280;3142;48.206;11.550;2022-08-01T08:23:23;95871.50;;;27.55;43.06
6218;BME280;3142;48.206;11.550;2022-08-01T08:26:07;95867.78;;;27.65;42.56
6218;BME280;3142;48.206;11.550;2022-08-01T08:28:34;95865.22;;;27.82;42.21
6218;BME280;3142;48.206;11.550;2022-08-01T08:31:00;95869.47;;;27.97;41.99
6218;BME280;3142;48.206;11.550;2022-08-01T08:33:26;95869.41;;;28.11;41.84
6218;BME280;3142;48.206;11.550;2022-08-01T08:35:53;95869.25;;;28.16;41.89
6218;BME280;3142;48.206;11.550;2022-08-01T08:38:21;95867.22;;;28.21;41.70
6218;BME280;3142;48.206;11.550;2022-08-01T08:40:51;95856.38;;;28.26;41.56
6218;BME280;3142;48.206;11.550;2022-08-01T08:43:18;95860.56;;;28.41;41.66
6218;BME280;3142;48.206;11.550;2022-08-01T08:45:45;95858.13;;;28.62;41.24
6218;BME280;3142;48.206;11.550;2022-08-01T08:48:13;95861.50;;;28.76;40.61
6218;BME280;3142;48.206;11.550;2022-08-01T08:50:41;95861.53;;;28.85;40.59
6218;BME280;3142;48.206;11.550;2022-08-01T08:53:09;95862.72;;;29.01;40.86
6218;BME280;3142;48.206;11.550;2022-08-01T08:55:37;95854.50;;;29.15;40.23
6218;BME280;3142;48.206;11.550;2022-08-01T08:58:04;95869.44;;;29.21;39.93
6218;BME280;3142;48.206;11.550;2022-08-01T09:00:31;95863.41;;;29.24;39.64
6218;BME280;3142;48.206;11.550;2022-08-01T09:02:58;95863.59;;;29.36;39.59
6218;BME280;3142;48.206;11.550;2022-08-01T09:05:24;95863.75;;;29.40;40.08
6218;BME280;3142;48.206;11.550;2022-08-01T09:07:51;95859.34;;;29.53;39.75
6218;BME280;3142;48.206;11.550;2022-08-01T09:10:18;95859.50;;;29.65;39.34
6218;BME280;3142;48.206;11.550;2022-08-01T09:13:09;95859.50;;;29.82;39.18
6218;BME280;3142;48.206;11.550;2022-08-01T09:15:41;95853.59;;;29.97;38.32
6218;BME280;3142;48.206;11.550;2022-08-01T09:18:09;95865.84;;;29.95;38.19
6218;BME280;3142;48.206;11.550;2022-08-01T09:20:51;95856.00;;;30.16;38.09
6218;BME280;3142;48.206;11.550;2022-08-01T09:23:31;95860.09;;;30.31;37.73
6218;BME280;3142;48.206;11.550;2022-08-01T09:25:57;95860.72;;;30.28;37.68
6218;BME280;3142;48.206;11.550;2022-08-01T09:28:28;95856.88;;;30.37;37.77
6218;BME280;3142;48.206;11.550;2022-08-01T09:30:55;95857.47;;;30.52;37.20
6218;BME280;3142;48.206;11.550;2022-08-01T09:33:22;95859.53;;;30.63;37.09
6218;BME280;3142;48.206;11.550;2022-08-01T09:35:54;95853.13;;;30.77;36.93
6218;BME280;3142;48.206;11.550;2022-08-01T09:38:22;95865.41;;;30.65;36.81
6218;BME280;3142;48.206;11.550;2022-08-01T09:40:53;95858.19;;;30.78;36.63
6218;BME280;3142;48.206;11.550;2022-08-01T09:43:22;95856.91;;;30.84;36.72
6218;BME280;3142;48.206;11.550;2022-08-01T09:45:51;95856.03;;;31.01;36.51
6218;BME280;3142;48.206;11.550;2022-08-01T09:48:18;95863.72;;;31.11;36.34
6218;BME280;3142;48.206;11.550;2022-08-01T09:50:46;95860.50;;;31.27;36.21
6218;BME280;3142;48.206;11.550;2022-08-01T09:53:14;95863.72;;;31.11;35.98
6218;BME280;3142;48.206;11.550;2022-08-01T09:55:41;95863.72;;;31.20;35.61
6218;BME280;3142;48.206;11.550;2022-08-01T09:58:09;95851.53;;;31.35;34.88
6218;BME280;3142;48.206;11.550;2022-08-01T10:00:37;95857.06;;;31.38;34.96
6218;BME280;3142;48.206;11.550;2022-08-01T10:03:20;95855.00;;;31.14;35.92
6218;BME280;3142;48.206;11.550;2022-08-01T10:05:46;95854.56;;;31.33;35.97
6218;BME280;3142;48.206;11.550;2022-08-01T10:08:13;95853.00;;;31.53;35.22
6218;BME280;3142;48.206;11.550;2022-08-01T10:10:40;95843.34;;;31.64;34.63
6218;BME280;3142;48.206;11.550;2022-08-01T10:13:07;95838.53;;;31.70;34.85
6218;BME280;3142;48.206;11.550;2022-08-01T10:15:35;95846.16;;;31.76;34.94
6218;BME280;3142;48.206;11.550;2022-08-01T10:18:04;95843.72;;;31.83;34.44
6218;BME280;3142;48.206;11.550;2022-08-01T10:20:33;95845.63;;;31.83;34.77
6218;BME280;3142;48.206;11.550;2022-08-01T10:23:02;95846.19;;;31.89;34.42
6218;BME280;3142;48.206;11.550;2022-08-01T10:25:34;95837.88;;;31.52;35.56
6218;BME280;3142;48.206;11.550;2022-08-01T10:28:06;95833.66;;;31.42;35.43
6218;BME280;3142;48.206;11.550;2022-08-01T10:30:36;95836.69;;;31.62;35.07
6218;BME280;3142;48.206;11.550;2022-08-01T10:33:03;95843.31;;;31.94;33.98
6218;BME280;3142;48.206;11.550;2022-08-01T10:35:30;95836.88;;;31.98;33.51
6218;BME280;3142;48.206;11.550;2022-08-01T10:37:59;95833.75;;;32.08;33.38
6218;BME280;3142;48.206;11.550;2022-08-01T10:40:26;95832.78;;;32.25;32.33
6218;BME280;3142;48.206;11.550;2022-08-01T10:42:53;95830.78;;;32.01;33.65
6218;BME280;3142;48.206;11.550;2022-08-01T10:45:21;95826.81;;;32.32;33.66
6218;BME280;3142;48.206;11.550;2022-08-01T10:47:53;95824.03;;;31.74;34.26
6218;BME280;3142;48.206;11.550;2022-08-01T10:50:28;95825.41;;;32.13;34.10
6218;BME280;3142;48.206;11.550;2022-08-01T10:53:12;95829.56;;;32.56;33.14
6218;BME280;3142;48.206;11.550;2022-08-01T10:55:50;95822.69;;;32.13;33.88
6218;BME280;3142;48.206;11.550;2022-08-01T10:58:25;95822.03;;;32.50;33.38
6218;BME280;3142;48.206;11.550;2022-08-01T11:01:14;95816.91;;;32.60;33.13
6218;BME280;3142;48.206;11.550;2022-08-01T11:03:41;95818.53;;;32.49;33.15
6218;BME280;3142;48.206;11.550;2022-08-01T11:06:15;95808.50;;;31.63;34.05
6218;BME280;3142;48.206;11.550;2022-08-01T11:08:50;95806.94;;;31.41;34.28
6218;BME280;3142;48.206;11.550;2022-08-01T11:11:19;95807.69;;;31.00;34.68
6218;BME280;3142;48.206;11.550;2022-08-01T11:14:03;95810.09;;;31.22;34.48
6218;BME280;3142;48.206;11.550;2022-08-01T11:16:35;95797.56;;;31.80;33.68
6218;BME280;3142;48.206;11.550;2022-08-01T11:19:03;95805.44;;;32.18;32.83
6218;BME280;3142;48.206;11.550;2022-08-01T11:21:58;95801.69;;;32.56;32.28
6218;BME280;3142;48.206;11.550;2022-08-01T11:24:55;95797.94;;;32.72;32.10
6218;BME280;3142;48.206;11.550;2022-08-01T11:27:28;95791.06;;;32.99;31.72
6218;BME280;3142;48.206;11.550;2022-08-01T11:32:58;95790.06;;;32.67;32.00
6218;BME280;3142;48.206;11.550;2022-08-01T11:35:25;95782.63;;;32.64;31.97
6218;BME280;3142;48.206;11.550;2022-08-01T11:37:52;95789.63;;;32.78;31.79
6218;BME280;3142;48.206;11.550;2022-08-01T11:40:23;95788.81;;;32.89;31.59
6218;BME280;3142;48.206;11.550;2022-08-01T11:43:16;95787.56;;;33.11;31.42
6218;BME280;3142;48.206;11.550;2022-08-01T11:45:46;95771.22;;;32.83;31.64
6218;BME280;3142;48.206;11.550;2022-08-01T11:48:18;95776.41;;;32.64;31.97
6218;BME280;3142;48.206;11.550;2022-08-01T11:50:44;95773.81;;;32.92;31.35
6218;BME280;3142;48.206;11.550;2022-08-01T11:53:11;95771.94;;;33.20;31.13
6218;BME280;3142;48.206;11.550;2022-08-01T11:55:45;95773.66;;;33.13;30.58
6218;BME280;3142;48.206;11.550;2022-08-01T11:58:13;95781.56;;;33.18;31.17
6218;BME280;3142;48.206;11.550;2022-08-01T12:00:40;95777.25;;;33.17;30.78
6218;BME280;3142;48.206;11.550;2022-08-01T12:03:08;95790.63;;;32.97;31.06
6218;BME280;3142;48.206;11.550;2022-08-01T12:05:35;95781.59;;;32.69;31.23
6218;BME280;3142;48.206;11.550;2022-08-01T12:08:03;95782.94;;;32.38;31.63
6218;BME280;3142;48.206;11.550;2022-08-01T12:10:33;95773.97;;;32.26;32.30
6218;BME280;3142;48.206;11.550;2022-08-01T12:13:04;95772.00;;;32.02;32.47
6218;BME280;3142;48.206;11.550;2022-08-01T12:15:33;95766.59;;;32.02;32.81
6218;BME280;3142;48.206;11.550;2022-08-01T12:18:02;95772.69;;;31.99;32.69
6218;BME280;3142;48.206;11.550;2022-08-01T12:20:31;95755.66;;;31.98;32.67
6218;BME280;3142;48.206;11.550;2022-08-01T12:23:01;95747.50;;;31.86;32.83
6218;BME280;3142;48.206;11.550;2022-08-01T12:25:28;95751.69;;;31.63;32.55
6218;BME280;3142;48.206;11.550;2022-08-01T12:27:58;95750.50;;;31.51;32.93
6218;BME280;3142;48.206;11.550;2022-08-01T12:30:26;95753.38;;;31.34;33.35
6218;BME280;3142;48.206;11.550;2022-08-01T12:32:56;95752.13;;;31.32;33.32
6218;BME280;3142;48.206;11.550;2022-08-01T12:35:24;95752.09;;;31.11;33.84
6218;BME280;3142;48.206;11.550;2022-08-01T12:37:52;95749.78;;;31.01;33.55
6218;BME280;3142;48.206;11.550;2022-08-01T12:40:20;95748.59;;;31.10;33.56
6218;BME280;3142;48.206;11.550;2022-08-01T12:42:48;95748.00;;;31.05;33.97
6218;BME280;3142;48.206;11.550;2022-08-01T12:45:19;95747.94;;;30.92;33.83
6218;BME280;3142;48.206;11.550;2022-08-01T12:47:47;95747.13;;;30.92;33.50
6218;BME280;3142;48.206;11.550;2022-08-01T12:50:16;95738.81;;;30.97;33.66
6218;BME280;3142;48.206;11.550;2022-08-01T12:52:44;95734.41;;;30.92;34.10
6218;BME280;3142;48.206;11.550;2022-08-01T12:55:13;95742.44;;;30.80;33.58
6218;BME280;3142;48.206;11.550;2022-08-01T12:57:43;95733.34;;;30.64;33.07
6218;BME280;3142;48.206;11.550;2022-08-01T13:00:14;95732.94;;;30.45;33.34
6218;BME280;3142;48.206;11.550;2022-08-01T13:02:41;95738.78;;;30.17;34.20
6218;BME280;3142;48.206;11.550;2022-08-01T13:05:10;95739.75;;;30.04;34.44
6218;BME280;3142;48.206;11.550;2022-08-01T13:07:39;95733.91;;;29.93;34.82
6218;BME280;3142;48.206;11.550;2022-08-01T13:10:06;95747.28;;;29.81;34.87
6218;BME280;3142;48.206;11.550;2022-08-01T13:12:33;95743.66;;;29.77;35.41
6218;BME280;3142;48.206;11.550;2022-08-01T13:15:17;95746.34;;;29.68;35.57
6218;BME280;3142;48.206;11.550;2022-08-01T13:17:44;95755.25;;;29.60;35.63
6218;BME280;3142;48.206;11.550;2022-08-01T13:20:29;95741.47;;;29.53;36.11
6218;BME280;3142;48.206;11.550;2022-08-01T13:23:10;95743.69;;;29.51;36.22